Time;durP1;ratioP1;P1;durP2;ratioP2;P2;SDS_P1;SDS_P2;PMS_P1;PMS_P2;Temp;Humidity;BMP_temperature;BMP_pressure;BME280_temperature;BME280_humidity;BME280_pressure;Samples;Min_cycle;Max_cycle;Signal;HPM_P1;HPM_P2
2022/06/22 00:01:21;;;;;;;11.05;6.50;;;;;;;;;;4998743;28;20655;-86
2022/06/22 00:03:51;;;;;;;9.00;6.30;;;;;;;;;;4955312;28;20048;-91
2022/06/22 00:06:37;;;;;;;8.75;6.22;;;;;;;;;;4984806;28;20143;-87
2022/06/22 00:09:04;;;;;;;12.25;7.20;;;;;;;16.37;82.51;68587.41;4961189;28;20098;-87
2022/06/22 00:11:29;;;;;;;10.75;7.22;;;;;;;16.28;83.26;68582.53;4963723;28;20066;-87
2022/06/22 00:13:57;;;;;;;9.85;7.05;;;;;;;;;;4988119;28;20073;-86
2022/06/22 00:16:24;;;;;;;14.52;7.93;;;;;;;;;;4987337;28;20402;-87
2022/06/22 00:18:50;;;;;;;12.40;6.88;;;;;;;;;;4969367;28;20046;-89
2022/06/22 00:21:21;;;;;;;11.30;8.27;;;;;;;16.07;84.21;68559.75;4970368;28;20054;-87
2022/06/22 00:23:51;;;;;;;9.63;7.28;;;;;;;16.05;84.53;68552.09;4968711;28;20133;-87
2022/06/22 00:26:25;;;;;;;9.40;7.45;;;;;;;15.98;85.70;68549.50;4958896;28;20453;-88
2022/06/22 00:28:59;;;;;;;12.75;8.07;;;;;;;;;;4976389;28;20038;-88
2022/06/22 00:31:42;;;;;;;16.02;7.93;;;;;;;;;;4986758;28;20125;-88
2022/06/22 00:34:10;;;;;;;12.60;8.00;;;;;;;15.81;86.03;68524.75;4981031;28;20057;-88
2022/06/22 00:36:48;;;;;;;10.63;7.95;;;;;;;15.69;87.03;68520.25;4968590;28;20055;-87
2022/06/22 00:39:28;;;;;;;13.00;7.97;;;;;;;15.74;86.23;68517.34;4975793;28;20053;-88
2022/06/22 00:42:14;;;;;;;12.07;7.93;;;;;;;15.69;86.45;68517.00;4971262;28;20038;-86
2022/06/22 00:44:43;;;;;;;8.93;7.70;;;;;;;15.63;87.20;68513.41;4974614;28;20038;-87
2022/06/22 00:47:28;;;;;;;11.52;8.30;;;;;;;15.63;87.07;68502.66;4989476;28;20046;-88
2022/06/22 00:49:55;;;;;;;11.63;7.97;;;;;;;;;;4968181;28;20050;-87
2022/06/22 00:52:32;;;;;;;11.57;8.02;;;;;;;15.54;87.19;68495.09;4951979;28;20043;-87
2022/06/22 00:54:58;;;;;;;11.88;8.32;;;;;;;15.47;87.46;68493.06;4964021;28;20402;-87
2022/06/22 00:57:27;;;;;;;13.80;8.13;;;;;;;;;;4973974;28;20050;-87
2022/06/22 00:59:56;;;;;;;10.52;8.15;;;;;;;;;;4982493;28;20055;-87
2022/06/22 01:02:24;;;;;;;12.93;8.02;;;;;;;15.40;87.76;68485.09;4970928;28;20072;-87
2022/06/22 01:04:52;;;;;;;12.02;8.48;;;;;;;;;;5002496;28;20047;-87
2022/06/22 01:07:28;;;;;;;11.07;8.45;;;;;;;;;;4970388;28;20042;-88
2022/06/22 01:10:00;;;;;;;12.93;9.40;;;;;;;;;;4973568;28;20907;-87
2022/06/22 01:12:28;;;;;;;15.23;8.07;;;;;;;15.17;88.55;68458.88;4970104;28;20035;-87
2022/06/22 01:15:27;;;;;;;13.63;8.82;;;;;;;15.12;88.53;68454.31;4986480;28;20053;-87
2022/06/22 01:18:04;;;;;;;11.27;7.93;;;;;;;15.06;89.23;68446.94;4985576;28;20109;-88
2022/06/22 01:21:03;;;;;;;11.98;8.25;;;;;;;15.01;89.68;68441.22;4969659;28;20046;-87
2022/06/22 01:23:38;;;;;;;12.45;9.98;;;;;;;14.94;90.85;68439.19;4967821;28;20041;-87
2022/06/22 01:26:21;;;;;;;12.07;8.80;;;;;;;14.91;90.52;68433.09;4980726;28;20050;-87
2022/06/22 01:29:00;;;;;;;11.70;8.77;;;;;;;14.90;90.98;68429.25;4955351;28;20050;-87
2022/06/22 01:31:27;;;;;;;13.15;8.50;;;;;;;14.87;89.64;68425.84;4971871;28;20050;-86
2022/06/22 01:33:54;;;;;;;11.10;9.02;;;;;;;14.81;90.99;68419.03;4971384;28;20085;-88
2022/06/22 01:36:30;;;;;;;13.10;9.32;;;;;;;14.79;90.61;68411.41;4968741;28;20030;-87
2022/06/22 01:38:56;;;;;;;12.63;9.70;;;;;;;;;;4986024;28;20065;-87
2022/06/22 01:41:48;;;;;;;12.32;9.18;;;;;;;14.66;91.42;68397.72;4986010;28;20509;-89
2022/06/22 01:44:29;;;;;;;13.75;9.15;;;;;;;14.60;92.41;68398.94;4964989;28;20616;-89
2022/06/22 01:47:12;;;;;;;15.65;10.00;;;;;;;;;;4969803;28;20133;-87
2022/06/22 01:49:47;;;;;;;11.85;8.93;;;;;;;14.55;91.86;68384.63;4956135;28;20039;-88
2022/06/22 01:52:24;;;;;;;14.55;9.27;;;;;;;14.51;91.99;68385.41;4980100;28;20042;-87
2022/06/22 01:54:55;;;;;;;16.35;9.20;;;;;;;;;;4986906;28;20137;-89
2022/06/22 01:57:35;;;;;;;12.10;9.40;;;;;;;14.44;92.23;68378.00;4984856;28;20031;-87
2022/06/22 02:00:11;;;;;;;12.25;9.07;;;;;;;14.44;91.81;68378.00;4989096;28;20050;-87
2022/06/22 02:02:41;;;;;;;17.17;9.20;;;;;;;;;;4985294;28;20045;-87
2022/06/22 02:05:25;;;;;;;11.20;9.02;;;;;;;;;;4988432;28;20068;-87
2022/06/22 02:07:50;;;;;;;13.23;9.15;;;;;;;;;;4968029;28;20126;-87
2022/06/22 02:10:31;;;;;;;12.38;8.93;;;;;;;14.37;90.57;68370.03;4982750;28;20470;-87
2022/06/22 02:13:16;;;;;;;13.10;9.88;;;;;;;;;;4996635;28;20045;-87
2022/06/22 02:16:05;;;;;;;14.93;9.65;;;;;;;14.27;91.18;68358.66;4982444;28;20461;-87
2022/06/22 02:18:34;;;;;;;13.52;9.90;;;;;;;14.22;91.39;68348.19;4983084;28;20058;-87
2022/06/22 02:21:08;;;;;;;14.70;9.30;;;;;;;14.15;91.53;68351.50;4983497;28;20042;-87
2022/06/22 02:23:36;;;;;;;15.82;9.77;;;;;;;14.06;91.99;68335.31;4983409;28;20034;-87
2022/06/22 02:26:19;;;;;;;11.80;9.68;;;;;;;14.00;92.56;68329.63;4985828;28;20045;-86
2022/06/22 02:28:46;;;;;;;14.43;9.82;;;;;;;13.93;92.38;68321.69;4962170;28;20042;-86
2022/06/22 02:31:12;;;;;;;12.85;9.93;;;;;;;;;;4976986;28;20121;-87
2022/06/22 02:33:40;;;;;;;13.23;10.52;;;;;;;;;;4994137;28;20110;-88
2022/06/22 02:36:06;;;;;;;13.35;9.73;;;;;;;;;;5001485;28;20129;-86
2022/06/22 02:38:32;;;;;;;13.18;9.45;;;;;;;;;;4985143;28;20145;-86
2022/06/22 02:46:30;;;;;;;12.98;10.25;;;;;;;;;;4986037;28;20510;-86
2022/06/22 02:49:00;;;;;;;17.77;11.13;;;;;;;13.59;95.24;68285.66;5003329;28;20046;-86
2022/06/22 02:51:41;;;;;;;14.73;10.68;;;;;;;13.58;95.68;68282.44;4967046;28;20046;-86
2022/06/22 02:54:24;;;;;;;18.42;11.45;;;;;;;13.60;95.63;68284.13;4982052;28;20030;-87
2022/06/22 02:57:13;;;;;;;20.33;13.23;;;;;;;13.58;95.70;68277.09;4948706;28;20043;-86
2022/06/22 02:59:39;;;;;;;20.25;11.35;;;;;;;13.56;95.48;68279.59;4944077;28;20047;-87
2022/06/22 03:02:06;;;;;;;13.88;11.88;;;;;;;13.54;95.67;68283.22;4961323;28;20410;-86
2022/06/22 03:04:31;;;;;;;17.02;11.35;;;;;;;13.52;95.65;68276.19;4976502;28;20142;-86
2022/06/22 03:06:57;;;;;;;14.65;11.93;;;;;;;13.53;95.24;68279.97;4955560;28;20485;-87
2022/06/22 03:09:26;;;;;;;17.58;11.95;;;;;;;13.53;94.93;68276.75;4948427;28;20135;-86
2022/06/22 03:11:55;;;;;;;17.00;12.38;;;;;;;13.49;95.51;68277.53;4949711;28;20047;-87
2022/06/22 03:14:23;;;;;;;14.35;10.68;;;;;;;;;;4950502;28;20063;-86
2022/06/22 03:17:00;;;;;;;15.68;12.50;;;;;;;;;;4960987;28;20049;-86
2022/06/22 03:19:39;;;;;;;17.25;11.45;;;;;;;13.39;94.96;68255.47;4950544;28;20702;-86
2022/06/22 03:22:04;;;;;;;;;;;;;;;13.38;95.22;68260.25;4943451;28;20039;-88
2022/06/22 03:24:32;;;;;;;14.13;11.30;;;;;;;13.30;95.86;68254.38;4949214;28;19925;-88
2022/06/22 03:27:09;;;;;;;18.40;13.55;;;;;;;13.22;96.97;68242.59;4950586;28;20494;-88
2022/06/22 03:29:41;;;;;;;17.35;11.85;;;;;;;13.24;96.60;68246.97;4968789;28;20051;-88
2022/06/22 03:32:12;;;;;;;18.30;14.00;;;;;;;;;;4967588;28;20059;-86
2022/06/22 03:34:42;;;;;;;17.67;13.05;;;;;;;13.21;96.64;68246.81;4964052;28;20101;-87
2022/06/22 03:37:14;;;;;;;15.70;11.95;;;;;;;13.18;97.11;68240.72;4960928;28;20047;-87
2022/06/22 03:39:42;;;;;;;16.70;12.38;;;;;;;;;;4996979;28;20050;-87
2022/06/22 03:42:16;;;;;;;15.75;11.68;;;;;;;13.14;96.92;68232.91;4983269;28;20046;-87
2022/06/22 03:44:49;;;;;;;15.68;12.20;;;;;;;13.14;96.72;68233.50;5007222;28;20387;-87
2022/06/22 03:47:20;;;;;;;17.45;12.48;;;;;;;13.13;96.22;68232.34;4988950;28;20152;-88
2022/06/22 03:50:00;;;;;;;15.43;12.63;;;;;;;13.14;97.16;68232.91;4990420;28;20050;-87
2022/06/22 03:52:41;;;;;;;16.30;13.45;;;;;;;13.12;97.31;68233.31;4980242;28;20121;-86
2022/06/22 03:55:31;;;;;;;17.83;11.57;;;;;;;13.15;96.43;68234.06;4966883;28;20046;-88
2022/06/22 03:57:57;;;;;;;;;;;;;;;13.16;95.98;68238.44;4972680;28;20054;-86
2022/06/22 04:00:23;;;;;;;19.67;13.02;;;;;;;13.03;96.80;68221.56;4990092;28;20000;-86
2022/06/22 04:02:49;;;;;;;16.30;12.73;;;;;;;13.06;96.68;68219.63;4989714;28;20117;-86
2022/06/22 04:05:16;;;;;;;14.30;12.23;;;;;;;;;;4990617;28;20048;-85
2022/06/22 04:07:42;;;;;;;15.40;12.57;;;;;;;13.08;95.99;68226.66;4971399;28;20050;-86
2022/06/22 04:10:21;;;;;;;20.15;13.65;;;;;;;13.10;95.67;68229.50;4978012;28;20406;-86
2022/06/22 04:12:50;;;;;;;15.38;12.25;;;;;;;13.11;95.72;68230.06;4952107;28;20066;-83
2022/06/22 04:15:25;;;;;;;19.17;13.63;;;;;;;13.08;95.85;68227.22;4974021;28;20067;-84
2022/06/22 04:17:54;;;;;;;17.33;12.82;;;;;;;13.06;96.00;68227.66;4985971;28;20390;-84
2022/06/22 04:20:51;;;;;;;16.90;12.65;;;;;;;13.04;96.50;68222.13;5005804;28;20203;-88
2022/06/22 04:23:56;;;;;;;18.85;13.02;;;;;;;13.05;96.72;68223.81;4968878;28;20049;-86
2022/06/22 04:26:22;;;;;;;17.80;13.32;;;;;;;12.98;97.90;68215.31;4987655;28;20042;-86
2022/06/22 04:28:51;;;;;;;17.02;13.30;;;;;;;13.01;97.71;68218.72;4969725;28;20050;-87
2022/06/22 04:31:29;;;;;;;20.67;12.52;;;;;;;13.11;96.54;68230.06;4965342;28;20046;-87
2022/06/22 04:34:39;;;;;;;18.80;13.27;;;;;;;13.16;96.60;68235.19;5006416;28;20070;-86
2022/06/22 04:37:27;;;;;;;18.08;13.25;;;;;;;13.11;98.24;68232.75;4989279;28;20096;-83
2022/06/22 04:40:01;;;;;;;16.73;13.15;;;;;;;13.17;97.40;68239.00;5004579;28;20565;-85
2022/06/22 04:42:26;;;;;;;15.65;12.40;;;;;;;13.26;96.69;68247.16;4995399;28;20134;-85
2022/06/22 04:44:51;;;;;;;14.20;12.43;;;;;;;;;;4991125;28;20035;-85
2022/06/22 04:47:26;;;;;;;17.83;12.90;;;;;;;13.40;96.16;68262.50;4972944;28;20331;-86
2022/06/22 04:49:56;;;;;;;20.95;12.43;;;;;;;13.47;95.59;68270.47;4981105;28;20114;-85
2022/06/22 04:52:24;;;;;;;16.45;11.75;;;;;;;;;;4952955;28;20045;-86
2022/06/22 04:54:53;;;;;;;15.40;11.20;;;;;;;13.65;94.38;68284.47;4957153;28;20046;-85
2022/06/22 04:57:23;;;;;;;18.15;12.05;;;;;;;13.72;93.90;68301.03;4989393;28;20704;-85
2022/06/22 04:59:49;;;;;;;15.95;10.95;;;;;;;13.74;93.60;68302.72;4947942;28;20498;-85
2022/06/22 05:02:18;;;;;;;18.52;11.43;;;;;;;13.76;94.21;68302.34;4989635;28;20133;-87
2022/06/22 05:04:48;;;;;;;;;;;;;;;13.85;93.49;68315.25;4968369;28;20158;-87
2022/06/22 05:07:50;;;;;;;13.95;10.38;;;;;;;13.91;93.79;68318.84;4973430;28;19956;-87
2022/06/22 05:10:40;;;;;;;14.15;11.00;;;;;;;;;;4990584;28;20554;-86
2022/06/22 05:13:13;;;;;;;15.48;10.43;;;;;;;14.07;92.45;68336.47;4989537;28;20042;-87
2022/06/22 05:15:41;;;;;;;11.80;9.30;;;;;;;14.25;91.05;68356.97;4985774;28;20078;-87
2022/06/22 05:18:20;;;;;;;13.83;10.07;;;;;;;14.38;90.81;68371.19;4967860;28;20125;-87
2022/06/22 05:20:51;;;;;;;12.75;9.35;;;;;;;;;;4974536;28;20050;-88
2022/06/22 05:23:19;;;;;;;11.88;8.45;;;;;;;;;;4971630;28;20053;-87
2022/06/22 05:25:47;;;;;;;12.02;8.77;;;;;;;14.68;89.41;68406.91;4975484;28;20129;-86
2022/06/22 05:28:20;;;;;;;12.15;8.05;;;;;;;;;;4973971;28;20041;-87
2022/06/22 05:30:56;;;;;;;11.55;8.70;;;;;;;14.85;87.40;68424.16;4963265;28;20046;-87
2022/06/22 05:33:25;;;;;;;9.77;7.13;;;;;;;14.96;85.80;68436.13;4987049;28;20561;-87
2022/06/22 05:35:58;;;;;;;9.65;7.65;;;;;;;15.10;85.27;68444.03;4991170;28;20042;-85
2022/06/22 05:38:24;;;;;;;11.68;7.07;;;;;;;;;;4977128;28;20073;-85
2022/06/22 05:40:51;;;;;;;11.60;6.78;;;;;;;15.35;83.31;68479.94;4985630;28;20038;-85
2022/06/22 05:43:17;;;;;;;8.48;6.10;;;;;;;15.40;82.05;68484.53;4981335;28;20073;-86
2022/06/22 05:45:45;;;;;;;10.27;6.00;;;;;;;;;;5001162;28;20409;-85
2022/06/22 05:48:19;;;;;;;7.90;5.65;;;;;;;15.64;79.91;68511.28;4966191;28;20092;-85
2022/06/22 05:50:54;;;;;;;9.55;5.50;;;;;;;;;;4976270;28;20042;-86
2022/06/22 05:53:32;;;;;;;7.93;5.47;;;;;;;;;;4966593;28;20057;-86
2022/06/22 05:56:31;;;;;;;7.63;5.20;;;;;;;15.95;77.98;68546.63;4976335;28;20026;-87
2022/06/22 05:59:08;;;;;;;8.20;5.53;;;;;;;16.06;77.71;68558.59;4970461;28;20506;-87
2022/06/22 06:01:40;;;;;;;6.93;5.15;;;;;;;16.16;77.60;68569.44;4986409;28;20046;-87
2022/06/22 06:04:21;;;;;;;8.73;4.53;;;;;;;16.26;77.21;68575.47;4975611;28;20069;-87
2022/06/22 06:06:48;;;;;;;7.90;5.18;;;;;;;16.36;76.15;68586.84;4962810;28;20042;-87
2022/06/22 06:09:20;;;;;;;6.22;5.13;;;;;;;16.44;75.86;68603.47;4987990;28;20410;-87
2022/06/22 06:11:50;;;;;;;5.70;4.10;;;;;;;16.56;74.95;68616.59;4970038;28;20038;-87
2022/06/22 06:14:22;;;;;;;7.07;4.78;;;;;;;;;;4970866;28;20137;-87
2022/06/22 06:16:52;;;;;;;6.82;5.00;;;;;;;16.76;73.02;68636.72;4988363;28;20048;-87
2022/06/22 06:19:22;;;;;;;7.65;4.30;;;;;;;16.90;73.33;68647.31;4979774;28;20042;-88
2022/06/22 06:21:53;;;;;;;8.13;4.97;;;;;;;16.95;72.46;68657.25;4985332;28;20133;-87
2022/06/22 06:24:29;;;;;;;5.45;4.40;;;;;;;17.11;72.55;68670.13;4969967;28;20104;-87
2022/06/22 06:29:47;;;;;;;6.57;3.63;;;;;;;17.26;69.60;68694.72;4968517;28;20181;-87
2022/06/22 06:32:44;;;;;;;6.53;3.53;;;;;;;17.42;70.26;68710.31;4965248;28;20105;-88
2022/06/22 06:35:16;;;;;;;6.40;3.70;;;;;;;;;;4953595;28;20051;-87
2022/06/22 06:38:15;;;;;;;10.98;3.72;;;;;;;17.58;69.04;68728.56;4966711;28;21549;-87
2022/06/22 06:41:07;;;;;;;7.47;3.67;;;;;;;17.59;68.44;68721.06;4981568;28;20148;-87
2022/06/22 06:43:43;;;;;;;6.40;3.50;;;;;;;;;;4961782;28;20187;-87
2022/06/22 06:46:32;;;;;;;5.00;3.38;;;;;;;;;;4967382;28;20110;-87
2022/06/22 06:49:04;;;;;;;6.13;3.33;;;;;;;17.95;68.52;68763.69;4959791;28;20105;-87
2022/06/22 06:51:32;;;;;;;5.57;3.47;;;;;;;18.03;66.66;68773.41;4982948;28;20042;-86
2022/06/22 06:54:02;;;;;;;7.60;3.70;;;;;;;;;;4971262;28;20042;-86
2022/06/22 06:56:46;;;;;;;5.90;3.30;;;;;;;18.26;67.29;68804.47;4969042;28;20505;-87
2022/06/22 06:59:15;;;;;;;6.60;3.95;;;;;;;;;;4969765;28;20137;-86
2022/06/22 07:01:41;;;;;;;7.03;3.42;;;;;;;18.39;65.28;68812.81;4987640;28;20820;-87
2022/06/22 07:04:12;;;;;;;5.25;3.08;;;;;;;18.46;66.37;68820.78;4970713;28;20042;-86
2022/06/22 07:06:39;;;;;;;5.72;3.35;;;;;;;18.67;65.29;68844.78;4983936;28;20053;-87
2022/06/22 07:09:40;;;;;;;5.50;3.22;;;;;;;18.81;64.25;68859.63;4986611;28;20042;-87
2022/06/22 07:12:17;;;;;;;5.53;3.03;;;;;;;;;;4906356;29;20122;-87
2022/06/22 07:14:44;;;;;;;6.95;3.60;;;;;;;18.81;63.44;68859.63;4965791;28;20078;-87
2022/06/22 07:17:20;;;;;;;6.65;3.83;;;;;;;18.78;65.10;68862.16;4962922;28;20398;-88
2022/06/22 07:19:52;;;;;;;7.60;3.47;;;;;;;;;;4969701;28;20043;-87
2022/06/22 07:22:25;;;;;;;5.82;3.65;;;;;;;19.16;63.23;68904.44;4969262;28;20116;-88
2022/06/22 07:25:07;;;;;;;15.32;3.10;;;;;;;19.26;63.60;68909.91;4934681;28;20760;-87
2022/06/22 07:27:44;;;;;;;5.32;3.38;;;;;;;19.33;63.15;68913.06;4965356;28;20664;-87
2022/06/22 07:30:31;;;;;;;6.65;3.58;;;;;;;19.32;62.95;68916.75;4953976;28;20629;-88
2022/06/22 07:32:59;;;;;;;6.63;3.17;;;;;;;;;;4974360;28;20047;-88
2022/06/22 07:35:28;;;;;;;7.15;3.92;;;;;;;;;;4962943;28;20038;-87
2022/06/22 07:38:07;;;;;;;6.88;3.75;;;;;;;19.74;60.92;68969.03;4968291;28;20088;-87
2022/06/22 07:40:33;;;;;;;11.50;3.75;;;;;;;19.82;60.69;68972.75;4970405;28;20065;-87
2022/06/22 07:42:59;;;;;;;9.93;3.67;;;;;;;;;;4984811;28;20041;-88
2022/06/22 07:45:27;;;;;;;7.55;3.15;;;;;;;19.88;60.23;68985.03;4968066;28;20030;-87
2022/06/22 07:47:58;;;;;;;5.75;3.33;;;;;;;20.02;60.33;68992.34;4988715;28;20066;-87
2022/06/22 07:50:29;;;;;;;7.32;3.60;;;;;;;20.13;60.43;69002.22;4985873;28;20038;-87
2022/06/22 07:53:01;;;;;;;5.07;3.30;;;;;;;20.23;59.49;69016.38;4986804;28;20053;-87
2022/06/22 07:55:39;;;;;;;7.60;3.08;;;;;;;;;;4999289;28;20042;-87
2022/06/22 07:58:17;;;;;;;4.25;2.92;;;;;;;20.35;59.27;69031.66;4968023;28;20067;-87
2022/06/22 08:00:46;;;;;;;6.10;3.10;;;;;;;20.43;59.71;69049.47;4972110;28;20050;-88
2022/06/22 08:03:33;;;;;;;7.22;3.50;;;;;;;20.70;58.35;69071.13;4967427;28;20046;-87
2022/06/22 08:06:05;;;;;;;6.30;2.85;;;;;;;20.79;57.39;69078.69;4968290;28;20522;-87
2022/06/22 08:08:37;;;;;;;5.60;3.15;;;;;;;20.76;57.46;69077.97;4985164;28;20045;-87
2022/06/22 08:11:09;;;;;;;6.57;3.17;;;;;;;20.68;57.71;69068.81;4986738;28;20042;-88
2022/06/22 08:13:46;;;;;;;5.47;2.60;;;;;;;20.86;59.39;69088.84;4980567;28;20042;-87
2022/06/22 08:16:39;;;;;;;4.35;2.83;;;;;;;20.83;56.72;69085.41;4961472;28;20126;-87
2022/06/22 08:19:05;;;;;;;6.95;2.78;;;;;;;;;;4962444;28;20042;-87
2022/06/22 08:21:40;;;;;;;4.50;2.85;;;;;;;20.79;57.19;69081.41;4981693;28;20442;-87
2022/06/22 08:24:09;;;;;;;5.38;2.47;;;;;;;;;;4953803;28;20716;-87
2022/06/22 08:26:35;;;;;;;5.30;2.47;;;;;;;21.04;56.07;69114.28;4969423;28;20561;-87
2022/06/22 08:29:01;;;;;;;7.55;2.60;;;;;;;21.19;54.95;69126.59;4964304;28;20070;-88
2022/06/22 08:31:30;;;;;;;10.82;3.08;;;;;;;;;;4982171;28;20049;-87
2022/06/22 08:33:59;;;;;;;5.28;2.55;;;;;;;21.16;54.77;69122.59;4977213;28;20038;-87
2022/06/22 08:36:54;;;;;;;5.78;2.78;;;;;;;21.19;54.45;69131.44;4971303;28;20493;-88
2022/06/22 08:39:32;;;;;;;6.88;2.70;;;;;;;21.35;55.06;69141.63;4970668;28;20042;-87
2022/06/22 08:42:01;;;;;;;5.80;2.50;;;;;;;21.60;53.36;69171.81;4971413;28;20497;-87
2022/06/22 08:44:45;;;;;;;5.28;2.38;;;;;;;21.70;53.32;69180.56;4987989;28;20137;-87
2022/06/22 08:47:41;;;;;;;6.38;2.53;;;;;;;21.72;53.44;69185.56;4989057;28;20046;-88
2022/06/22 08:50:09;;;;;;;7.60;2.88;;;;;;;21.72;52.90;69182.25;4957873;28;20046;-88
2022/06/22 08:52:45;;;;;;;6.38;2.95;;;;;;;;;;4973902;28;20068;-88
2022/06/22 08:55:18;;;;;;;5.57;2.65;;;;;;;;;;4969789;28;20522;-88
2022/06/22 08:58:04;;;;;;;4.90;2.58;;;;;;;21.85;50.80;69200.44;4969017;28;20077;-87
2022/06/22 09:00:42;;;;;;;8.73;2.90;;;;;;;21.68;51.73;69180.97;4949410;28;20051;-88
2022/06/22 09:03:35;;;;;;;3.97;2.33;;;;;;;21.72;52.31;69179.56;4955266;28;20123;-88
2022/06/22 09:06:24;;;;;;;5.22;2.38;;;;;;;;;;4963478;28;20499;-88
2022/06/22 09:09:19;;;;;;;8.32;2.72;;;;;;;22.19;51.13;69232.81;4933366;28;20046;-87
2022/06/22 09:11:59;;;;;;;6.82;2.58;;;;;;;22.17;51.80;69235.94;4983863;28;20046;-88
2022/06/22 09:15:02;;;;;;;5.43;2.80;;;;;;;22.09;48.63;69227.31;4954308;28;20395;-88
2022/06/22 09:17:40;;;;;;;4.38;2.33;;;;;;;;;;4952406;28;20043;-89
2022/06/22 09:20:56;;;;;;;4.88;2.63;;;;;;;22.19;49.78;69237.66;4958402;28;20090;-88
2022/06/22 09:23:31;;;;;;;6.90;2.42;;;;;;;22.17;50.10;69241.34;4936769;28;20046;-89
2022/06/22 09:26:15;;;;;;;10.15;2.40;;;;;;;;;;4969391;28;20050;-89
2022/06/22 09:28:58;;;;;;;6.90;2.10;;;;;;;22.19;51.05;69235.53;4965057;28;20039;-88
2022/06/22 09:31:30;;;;;;;6.95;2.40;;;;;;;22.26;50.18;69246.25;4986172;28;20042;-89
2022/06/22 09:34:22;;;;;;;5.43;2.88;;;;;;;22.33;48.94;69248.28;4987824;28;20099;-89
2022/06/22 09:37:13;;;;;;;6.13;2.38;;;;;;;22.53;53.11;69276.03;4984885;28;20047;-88
2022/06/22 09:39:56;;;;;;;6.30;2.50;;;;;;;22.34;48.48;69254.25;4984746;28;20054;-89
2022/06/22 09:42:25;;;;;;;6.03;2.85;;;;;;;22.30;47.15;69255.69;5004006;28;20092;-88
2022/06/22 09:45:18;;;;;;;4.97;2.33;;;;;;;22.25;48.11;69242.38;4988067;28;20101;-89
2022/06/22 09:47:43;;;;;;;5.28;2.38;;;;;;;22.14;48.58;69232.47;4986921;28;20091;-88
2022/06/22 09:50:14;;;;;;;4.78;2.33;;;;;;;22.24;48.31;69243.38;4981609;28;20592;-88
2022/06/22 09:52:45;;;;;;;4.57;1.92;;;;;;;22.47;47.15;69269.13;4979479;28;20514;-89
2022/06/22 09:59:03;;;;;;;4.30;1.80;;;;;;;23.00;45.72;69328.16;4955345;28;20085;-89
2022/06/22 10:01:31;;;;;;;6.25;1.60;;;;;;;22.98;44.99;69323.72;4973966;28;20465;-89
2022/06/22 10:04:08;;;;;;;4.05;1.65;;;;;;;23.04;44.67;69332.72;4971893;28;20058;-89
2022/06/22 10:06:46;;;;;;;4.40;1.75;;;;;;;;;;4978715;28;20046;-88
2022/06/22 10:09:33;;;;;;;4.80;1.75;;;;;;;23.25;44.61;69362.22;4993197;28;20073;-88
2022/06/22 10:12:29;;;;;;;3.33;1.67;;;;;;;23.26;43.53;69354.66;4968604;28;20140;-89
2022/06/22 10:15:34;;;;;;;5.32;1.80;;;;;;;23.58;44.38;69388.59;4984744;28;20081;-89
2022/06/22 10:18:11;;;;;;;4.75;1.60;;;;;;;23.72;42.35;69406.25;4940794;28;20035;-88
2022/06/22 10:20:40;;;;;;;3.22;1.50;;;;;;;23.85;41.88;69421.13;4968470;28;20047;-89
2022/06/22 10:23:24;;;;;;;4.65;2.00;;;;;;;24.06;41.05;69444.66;4977420;28;20116;-88
2022/06/22 10:26:07;;;;;;;3.55;1.42;;;;;;;;;;4970158;28;20050;-88
2022/06/22 10:29:17;;;;;;;4.13;1.55;;;;;;;23.85;41.36;69423.84;4986205;28;20517;-89
2022/06/22 10:32:14;;;;;;;5.45;1.90;;;;;;;23.81;42.86;69419.28;4873496;29;20103;-88
2022/06/22 10:34:46;;;;;;;3.57;1.90;;;;;;;23.86;42.37;69425.56;4871288;29;20056;-89
2022/06/22 10:37:47;;;;;;;5.80;1.90;;;;;;;23.74;42.86;69409.13;4928176;28;20090;-89
2022/06/22 10:46:22;;;;;;;6.22;2.10;;;;;;;24.17;40.87;69459.38;4989719;28;20107;-88
2022/06/22 10:49:15;;;;;;;7.25;2.25;;;;;;;24.29;40.47;69471.00;4985363;28;20630;-88
2022/06/22 10:52:15;;;;;;;3.83;1.48;;;;;;;24.14;41.68;69453.22;4958326;28;20134;-88
2022/06/22 10:54:49;;;;;;;4.18;1.98;;;;;;;24.28;41.90;69467.16;4946823;28;20043;-89
2022/06/22 10:57:39;;;;;;;3.55;1.80;;;;;;;24.58;40.76;69502.56;4949543;28;20050;-88
2022/06/22 11:00:11;;;;;;;4.88;2.40;;;;;;;24.14;41.41;69455.94;4953349;28;20518;-89
2022/06/22 11:03:09;;;;;;;6.35;2.30;;;;;;;24.23;41.25;69466.28;4967109;28;20112;-88
2022/06/22 11:05:53;;;;;;;4.18;1.58;;;;;;;;;;4976736;28;20700;-89
2022/06/22 11:08:49;;;;;;;4.95;1.40;;;;;;;24.67;38.14;69512.88;4981990;28;20058;-89
2022/06/22 11:11:40;;;;;;;5.85;1.58;;;;;;;24.87;39.51;69533.09;4967393;28;20057;-88
2022/06/22 11:14:23;;;;;;;5.72;2.17;;;;;;;24.62;39.78;69510.44;4967375;28;20076;-89
2022/06/22 11:17:04;;;;;;;5.72;2.05;;;;;;;24.86;38.32;69537.41;4986202;28;20125;-89
2022/06/22 11:19:40;;;;;;;5.38;1.90;;;;;;;;;;4971800;28;20050;-88
2022/06/22 11:22:30;;;;;;;4.20;1.80;;;;;;;24.66;37.92;69511.75;5003049;28;20425;-89
2022/06/22 11:32:03;;;;;;;3.63;1.50;;;;;;;25.27;37.51;69580.03;4973534;28;20049;-88
2022/06/22 11:34:53;;;;;;;3.83;1.70;;;;;;;25.08;37.79;69561.50;5001515;28;20045;-89
2022/06/22 11:37:57;;;;;;;5.00;1.95;;;;;;;24.78;39.27;69528.22;4985844;28;20038;-89
2022/06/22 11:40:55;;;;;;;3.00;1.60;;;;;;;24.80;36.98;69530.53;4954231;28;20093;-89
2022/06/22 11:43:26;;;;;;;4.78;1.80;;;;;;;24.99;37.91;69552.31;4952658;28;20046;-89
2022/06/22 11:46:02;;;;;;;3.53;1.77;;;;;;;25.16;38.30;69570.69;4979507;28;20046;-88
2022/06/22 11:48:57;;;;;;;4.68;1.50;;;;;;;25.59;38.09;69616.72;4967945;28;20047;-88
2022/06/22 11:51:42;;;;;;;4.45;1.25;;;;;;;25.83;37.03;69646.44;4968775;28;20050;-88
2022/06/22 11:54:37;;;;;;;4.40;1.75;;;;;;;25.81;36.83;69644.13;4953233;28;20470;-89
2022/06/22 11:57:28;;;;;;;4.00;1.65;;;;;;;25.70;35.92;69630.94;4959668;28;20050;-88
2022/06/22 12:00:14;;;;;;;4.38;1.52;;;;;;;26.06;37.65;69666.25;4971681;28;20506;-89
2022/06/22 12:03:08;;;;;;;4.63;1.70;;;;;;;26.04;37.18;69661.22;4970513;28;20053;-88
2022/06/22 12:06:10;;;;;;;3.72;1.40;;;;;;;26.29;35.94;69697.53;4971848;28;20061;-89
2022/06/22 12:08:47;;;;;;;5.75;1.70;;;;;;;26.23;34.65;69685.19;4985824;28;20042;-89
2022/06/22 12:11:58;;;;;;;3.53;1.40;;;;;;;26.44;36.15;69712.03;4988635;28;20221;-88
2022/06/22 12:17:34;;;;;;;4.13;1.55;;;;;;;26.13;34.54;69674.28;4973352;28;20124;-88
2022/06/22 12:19:59;;;;;;;6.65;1.30;;;;;;;26.11;36.72;69671.97;4979770;28;20050;-88
2022/06/22 12:22:40;;;;;;;3.28;1.17;;;;;;;26.39;35.54;69703.00;4970272;28;20509;-88
2022/06/22 12:25:21;;;;;;;2.97;1.20;;;;;;;26.60;35.33;69729.28;4968486;28;20081;-88
2022/06/22 12:28:05;;;;;;;3.67;1.20;;;;;;;26.92;35.92;69762.72;4967125;28;20081;-88
2022/06/22 12:30:40;;;;;;;2.35;1.20;;;;;;;27.04;34.58;69778.66;4974339;28;20129;-88
2022/06/22 12:33:17;;;;;;;3.38;1.20;;;;;;;27.29;33.15;69801.38;4965603;28;20125;-88
2022/06/22 12:35:56;;;;;;;2.20;1.00;;;;;;;27.04;31.81;69771.03;4971189;28;20514;-89
2022/06/22 12:38:38;;;;;;;3.53;1.35;;;;;;;26.91;33.27;69764.31;4981607;28;20137;-87
2022/06/22 12:41:18;;;;;;;2.13;1.00;;;;;;;26.78;33.54;69747.22;4977268;28;20457;-88
2022/06/22 12:44:02;;;;;;;2.70;1.10;;;;;;;27.11;33.97;69783.97;4968518;28;20081;-88
2022/06/22 12:46:46;;;;;;;3.25;1.20;;;;;;;27.52;32.67;69833.25;4963465;28;20042;-88
2022/06/22 12:49:14;;;;;;;3.92;1.42;;;;;;;27.51;33.43;69834.84;4944048;28;20043;-88
2022/06/22 12:51:58;;;;;;;3.40;1.15;;;;;;;27.83;32.80;69865.59;4951655;28;20047;-89
2022/06/22 12:54:36;;;;;;;2.95;1.23;;;;;;;27.99;32.13;69888.88;4961645;28;20055;-88
2022/06/22 12:57:01;;;;;;;3.10;1.10;;;;;;;28.00;32.31;69884.56;4942920;28;20062;-88
2022/06/22 12:59:46;;;;;;;3.33;1.30;;;;;;;27.89;31.81;69877.38;4928351;29;20288;-88
2022/06/22 13:02:21;;;;;;;3.83;1.10;;;;;;;28.03;32.51;69885.25;4927857;29;20190;-88
2022/06/22 13:04:55;;;;;;;2.30;1.05;;;;;;;28.24;32.86;69911.00;4955182;28;20058;-88
2022/06/22 13:07:20;;;;;;;2.95;1.00;;;;;;;28.22;32.30;69912.00;4943813;28;20043;-88
2022/06/22 13:09:47;;;;;;;4.47;1.50;;;;;;;28.31;31.74;69919.03;4945938;28;20043;-88
2022/06/22 13:12:13;;;;;;;3.95;1.27;;;;;;;28.48;30.83;69935.28;4946670;28;20050;-89
2022/06/22 13:14:53;;;;;;;10.95;1.33;;;;;;;28.27;30.71;69914.44;4941308;28;20053;-88
2022/06/22 13:17:37;;;;;;;5.18;1.08;;;;;;;28.17;32.23;69905.66;4963298;28;20134;-88
2022/06/22 13:20:29;;;;;;;2.40;1.08;;;;;;;28.19;32.49;69905.25;4943792;28;20054;-88